createdAt,value
2018-05-18T00:00:46.417Z,11.61
2018-05-18T00:03:12.935Z,11.57
2018-05-18T00:05:39.339Z,11.56
2018-05-18T00:08:05.734Z,11.60
2018-05-18T00:10:32.104Z,11.59
2018-05-18T00:12:58.484Z,11.63
2018-05-18T00:15:24.963Z,11.66
2018-05-18T00:17:51.401Z,11.64
2018-05-18T00:20:22.696Z,11.50
2018-05-18T00:22:49.124Z,11.45
2018-05-18T00:25:15.605Z,11.42
2018-05-18T00:27:42.101Z,11.42
2018-05-18T00:30:08.512Z,11.40
2018-05-18T00:32:35.010Z,11.43
2018-05-18T00:35:01.570Z,11.45
2018-05-18T00:37:27.934Z,11.47
2018-05-18T00:39:54.323Z,11.48
2018-05-18T00:42:20.709Z,11.50
2018-05-18T00:44:47.122Z,11.55
2018-05-18T00:47:13.419Z,11.58
2018-05-18T00:49:39.821Z,11.68
2018-05-18T00:52:06.246Z,11.64
2018-05-18T00:54:32.633Z,11.67
2018-05-18T00:56:59.055Z,11.68
2018-05-18T00:59:25.452Z,11.63
2018-05-18T01:01:51.832Z,11.60
2018-05-18T01:04:18.392Z,11.54
2018-05-18T01:06:44.845Z,11.45
2018-05-18T01:09:11.378Z,11.31
2018-05-18T01:11:37.810Z,11.27
2018-05-18T01:14:04.255Z,11.19
2018-05-18T01:16:30.597Z,11.16
2018-05-18T01:18:57.016Z,11.10
2018-05-18T01:21:23.373Z,11.07
2018-05-18T01:23:49.731Z,11.02
2018-05-18T01:26:16.100Z,11.03
2018-05-18T01:28:42.527Z,10.96
2018-05-18T01:31:08.846Z,10.98
2018-05-18T01:33:35.259Z,10.92
2018-05-18T01:36:01.649Z,10.71
2018-05-18T01:38:28.005Z,10.71
2018-05-18T01:40:54.349Z,10.62
2018-05-18T01:43:20.739Z,10.64
2018-05-18T01:45:47.071Z,10.49
2018-05-18T01:48:13.472Z,10.37
2018-05-18T01:50:39.868Z,10.29
2018-05-18T01:53:06.224Z,10.33
2018-05-18T01:55:32.722Z,10.33
2018-05-18T01:57:59.187Z,10.30
2018-05-18T02:00:25.609Z,10.22
2018-05-18T02:02:52.064Z,10.13
2018-05-18T02:05:18.555Z,10.04
2018-05-18T02:07:44.913Z,10.14
2018-05-18T02:10:11.305Z,10.07
2018-05-18T02:12:37.737Z,10.09
2018-05-18T02:15:04.204Z,10.04
2018-05-18T02:17:30.611Z,10.08
2018-05-18T02:19:57.034Z,10.04
2018-05-18T02:22:23.423Z,9.99
2018-05-18T02:24:49.846Z,9.97
2018-05-18T02:27:16.281Z,9.95
2018-05-18T02:29:42.708Z,9.91
2018-05-18T02:32:09.122Z,9.83
2018-05-18T02:34:35.536Z,9.72
2018-05-18T02:37:01.961Z,9.66
2018-05-18T02:39:28.392Z,9.61
2018-05-18T02:41:54.742Z,9.52
2018-05-18T02:44:21.114Z,9.46
2018-05-18T02:46:47.470Z,9.52
2018-05-18T02:49:13.865Z,9.55
2018-05-18T02:51:40.269Z,9.53
2018-05-18T02:54:06.665Z,9.52
2018-05-18T02:56:33.128Z,9.47
2018-05-18T02:58:59.467Z,9.49
2018-05-18T03:01:25.906Z,9.46
2018-05-18T03:03:52.437Z,9.47
2018-05-18T03:06:18.836Z,9.46
2018-05-18T03:08:45.193Z,9.46
2018-05-18T03:11:11.642Z,9.52
2018-05-18T03:13:38.095Z,9.52
2018-05-18T03:16:04.546Z,9.52
2018-05-18T03:18:31.022Z,9.49
2018-05-18T03:20:57.412Z,9.48
2018-05-18T03:23:23.813Z,9.55
2018-05-18T03:25:50.372Z,9.56
2018-05-18T03:28:16.935Z,9.67
2018-05-18T03:30:43.509Z,9.74
2018-05-18T03:33:10.151Z,9.70
2018-05-18T03:35:36.587Z,9.67
2018-05-18T03:38:03.017Z,9.83
2018-05-18T03:40:29.654Z,9.94
2018-05-18T03:42:56.143Z,9.99
2018-05-18T03:45:22.803Z,10.04
2018-05-18T03:47:49.391Z,10.03
2018-05-18T03:50:15.920Z,10.02
2018-05-18T03:52:42.483Z,10.29
2018-05-18T03:55:08.970Z,10.31
2018-05-18T03:57:35.397Z,11.70
2018-05-18T04:00:08.954Z,12.05
2018-05-18T04:02:47.624Z,11.87
2018-05-18T04:05:26.372Z,13.38
2018-05-18T04:10:52.340Z,15.21
2018-05-18T04:13:19.507Z,14.69
2018-05-18T04:15:46.090Z,15.02
2018-05-18T04:18:12.565Z,14.55
2018-05-18T04:20:39.296Z,13.80
2018-05-18T04:23:05.844Z,13.52
2018-05-18T04:25:32.399Z,13.22
2018-05-18T04:27:58.952Z,13.01
2018-05-18T04:30:25.434Z,13.07
2018-05-18T04:32:52.862Z,12.83
2018-05-18T04:35:19.350Z,12.44
2018-05-18T04:37:46.217Z,12.34
2018-05-18T04:40:12.643Z,12.60
2018-05-18T04:42:39.078Z,12.49
2018-05-18T04:45:05.558Z,12.54
2018-05-18T04:47:32.071Z,12.57
2018-05-18T04:49:58.483Z,12.44
2018-05-18T04:52:24.877Z,12.28
2018-05-18T04:54:51.640Z,12.54
2018-05-18T04:57:18.199Z,12.70
2018-05-18T04:59:44.604Z,12.94
2018-05-18T05:02:11.362Z,14.40
2018-05-18T05:04:37.798Z,14.62
2018-05-18T05:07:04.218Z,15.25
2018-05-18T05:09:31.402Z,16.32
2018-05-18T05:11:57.916Z,16.16
2018-05-18T05:14:24.445Z,16.20
2018-05-18T05:16:50.815Z,15.30
2018-05-18T05:19:17.193Z,16.25
2018-05-18T05:21:43.591Z,17.06
2018-05-18T05:24:10.142Z,17.29
2018-05-18T05:26:36.586Z,17.14
2018-05-18T05:29:03.081Z,17.53
2018-05-18T05:31:29.570Z,18.04
2018-05-18T05:33:56.095Z,18.23
2018-05-18T05:36:22.533Z,18.37
2018-05-18T05:38:49.059Z,17.57
2018-05-18T05:41:15.553Z,17.32
2018-05-18T05:43:42.039Z,18.20
2018-05-18T05:46:08.911Z,18.06
2018-05-18T05:48:35.405Z,18.44
2018-05-18T05:51:01.839Z,18.58
2018-05-18T05:53:28.271Z,18.95
2018-05-18T05:55:54.758Z,18.69
2018-05-18T05:58:21.255Z,18.69
2018-05-18T06:00:47.770Z,18.79
2018-05-18T06:03:14.254Z,18.95
2018-05-18T06:05:40.943Z,19.39
2018-05-18T06:08:07.649Z,19.21
2018-05-18T06:10:34.455Z,19.38
2018-05-18T06:13:01.011Z,19.16
2018-05-18T06:15:27.567Z,19.34
2018-05-18T06:17:54.299Z,19.64
2018-05-18T06:20:20.728Z,19.26
2018-05-18T06:22:47.266Z,19.39
2018-05-18T06:25:13.769Z,18.27
2018-05-18T06:27:40.148Z,18.17
2018-05-18T06:30:06.653Z,18.27
2018-05-18T06:32:33.279Z,19.17
2018-05-18T06:35:01.107Z,19.59
2018-05-18T06:37:27.835Z,19.61
2018-05-18T06:39:54.330Z,19.98
2018-05-18T06:42:21.923Z,19.80
2018-05-18T06:44:48.565Z,20.08
2018-05-18T06:47:15.063Z,20.78
2018-05-18T06:49:41.583Z,20.83
2018-05-18T06:52:08.167Z,20.10
2018-05-18T06:54:34.662Z,19.60
2018-05-18T06:57:01.071Z,19.18
2018-05-18T06:59:27.534Z,18.90
2018-05-18T07:01:53.931Z,19.06
2018-05-18T07:04:20.375Z,19.13
2018-05-18T07:06:46.785Z,19.30
2018-05-18T07:09:13.236Z,19.61
2018-05-18T07:11:39.645Z,19.47
2018-05-18T07:14:06.353Z,19.50
2018-05-18T07:16:32.882Z,20.36
2018-05-18T07:18:59.378Z,21.18
2018-05-18T07:21:25.769Z,21.26
2018-05-18T07:23:52.185Z,21.91
2018-05-18T07:26:18.698Z,22.15
2018-05-18T07:28:45.128Z,21.24
2018-05-18T07:31:11.523Z,21.14
2018-05-18T07:33:38.821Z,21.15
2018-05-18T07:36:05.411Z,20.83
2018-05-18T07:38:31.816Z,20.75
2018-05-18T07:40:58.304Z,20.92
2018-05-18T07:43:24.739Z,21.41
2018-05-18T07:45:51.325Z,21.14
2018-05-18T07:48:17.824Z,20.97
2018-05-18T07:50:44.421Z,20.57
2018-05-18T07:53:10.796Z,21.19
2018-05-18T07:55:37.296Z,21.93
2018-05-18T07:58:04.036Z,21.71
2018-05-18T08:00:30.472Z,21.54
2018-05-18T08:02:57.079Z,21.70
2018-05-18T08:05:23.609Z,22.17
2018-05-18T08:07:50.328Z,22.41
2018-05-18T08:10:16.806Z,22.21
2018-05-18T08:12:43.225Z,22.66
2018-05-18T08:15:10.203Z,22.36
2018-05-18T08:17:36.677Z,22.07
2018-05-18T08:20:03.389Z,22.47
2018-05-18T08:22:29.872Z,22.59
2018-05-18T08:24:56.329Z,22.84
2018-05-18T08:27:22.837Z,22.39
2018-05-18T08:29:49.205Z,22.35
2018-05-18T08:32:15.688Z,22.67
2018-05-18T08:34:42.168Z,22.72
2018-05-18T08:37:08.580Z,22.82
2018-05-18T08:39:34.980Z,22.66
2018-05-18T08:42:01.424Z,22.37
2018-05-18T08:44:28.067Z,22.90
2018-05-18T08:46:54.438Z,23.95
2018-05-18T08:49:20.999Z,24.29
2018-05-18T08:51:47.382Z,23.60
2018-05-18T08:54:13.865Z,23.60
2018-05-18T08:56:40.316Z,23.93
2018-05-18T08:59:06.708Z,23.98
2018-05-18T09:01:33.135Z,23.98
2018-05-18T09:03:59.549Z,23.36
2018-05-18T09:06:26.093Z,23.41
2018-05-18T09:08:52.578Z,23.15
2018-05-18T09:11:18.963Z,23.25
2018-05-18T09:13:45.368Z,23.40
2018-05-18T09:16:11.775Z,23.07
2018-05-18T09:18:38.200Z,23.87
2018-05-18T09:21:04.634Z,23.36
2018-05-18T09:23:31.097Z,23.16
2018-05-18T09:25:58.574Z,24.19
2018-05-18T09:28:25.208Z,24.35
2018-05-18T09:30:51.602Z,24.35
2018-05-18T09:33:18.088Z,23.90
2018-05-18T09:35:56.437Z,24.28
2018-05-18T09:38:22.877Z,24.16
2018-05-18T09:40:49.325Z,23.64
2018-05-18T09:43:16.340Z,24.09
2018-05-18T09:45:42.826Z,24.12
2018-05-18T09:48:09.578Z,24.61
2018-05-18T09:50:35.983Z,25.04
2018-05-18T09:53:02.418Z,26.26
2018-05-18T09:55:29.356Z,25.85
2018-05-18T09:57:55.530Z,26.61
2018-05-18T10:00:21.925Z,25.94
2018-05-18T10:02:48.333Z,26.01
2018-05-18T10:05:14.783Z,26.29
2018-05-18T10:07:41.264Z,26.08
2018-05-18T10:10:07.879Z,26.46
2018-05-18T10:12:34.376Z,26.74
2018-05-18T10:15:03.000Z,26.60
2018-05-18T10:17:30.146Z,26.13
2018-05-18T10:19:56.946Z,26.41
2018-05-18T10:22:23.719Z,26.27
2018-05-18T10:24:51.481Z,26.42
2018-05-18T10:27:18.159Z,26.84
2018-05-18T10:29:44.649Z,27.19
2018-05-18T10:32:11.446Z,27.09
2018-05-18T10:34:38.184Z,25.40
2018-05-18T10:37:04.651Z,24.34
2018-05-18T10:39:31.064Z,25.75
2018-05-18T10:41:57.542Z,26.24
2018-05-18T10:44:23.962Z,26.27
2018-05-18T10:46:50.422Z,26.56
2018-05-18T10:49:17.228Z,25.61
2018-05-18T10:51:43.597Z,24.45
2018-05-18T10:54:10.111Z,25.34
2018-05-18T10:56:36.894Z,26.45
2018-05-18T10:59:03.529Z,26.75
2018-05-18T11:01:30.474Z,26.86
2018-05-18T11:03:56.967Z,26.84
2018-05-18T11:06:23.572Z,26.38
2018-05-18T11:08:50.120Z,25.67
2018-05-18T11:11:16.598Z,25.44
2018-05-18T11:13:43.134Z,25.30
2018-05-18T11:16:09.584Z,26.09
2018-05-18T11:18:36.012Z,26.01
2018-05-18T11:21:02.514Z,25.27
2018-05-18T11:23:29.038Z,26.18
2018-05-18T11:25:55.546Z,25.77
2018-05-18T11:28:22.009Z,25.79
2018-05-18T11:30:48.503Z,26.23
2018-05-18T11:33:15.041Z,26.56
2018-05-18T11:35:41.541Z,26.28
2018-05-18T11:38:08.002Z,26.35
2018-05-18T11:40:34.558Z,26.22
2018-05-18T11:43:01.120Z,26.10
2018-05-18T11:45:28.975Z,26.12
2018-05-18T11:47:55.805Z,26.33
2018-05-18T11:50:22.390Z,26.05
2018-05-18T11:52:48.817Z,26.13
2018-05-18T11:55:16.314Z,26.31
2018-05-18T11:57:42.808Z,26.03
2018-05-18T12:00:09.238Z,26.06
2018-05-18T12:02:35.701Z,26.22
2018-05-18T12:05:02.156Z,26.57
2018-05-18T12:07:28.612Z,27.23
2018-05-18T12:09:55.082Z,26.87
2018-05-18T12:12:21.549Z,26.93
2018-05-18T12:14:48.011Z,26.94
2018-05-18T12:17:14.538Z,26.73
2018-05-18T12:19:41.092Z,26.40
2018-05-18T12:22:08.016Z,26.78
2018-05-18T12:24:34.695Z,26.78
2018-05-18T12:27:01.436Z,26.25
2018-05-18T12:29:27.988Z,26.72
2018-05-18T12:31:54.469Z,26.71
2018-05-18T12:34:20.975Z,26.54
2018-05-18T12:36:47.453Z,27.00
2018-05-18T12:39:14.019Z,26.48
2018-05-18T12:41:40.489Z,26.89
2018-05-18T12:44:07.583Z,26.72
2018-05-18T12:46:34.461Z,26.57
2018-05-18T12:49:00.940Z,26.95
2018-05-18T12:51:28.078Z,26.86
2018-05-18T12:53:54.651Z,26.19
2018-05-18T12:56:21.126Z,26.45
2018-05-18T12:58:47.693Z,26.71
2018-05-18T13:01:14.291Z,26.68
2018-05-18T13:03:40.935Z,26.73
2018-05-18T13:06:07.799Z,26.83
2018-05-18T13:08:35.455Z,27.23
2018-05-18T13:11:02.262Z,26.93
2018-05-18T13:13:28.871Z,26.91
2018-05-18T13:15:57.481Z,26.57
2018-05-18T13:18:24.114Z,26.50
2018-05-18T13:20:50.638Z,26.73
2018-05-18T13:23:17.373Z,26.31
2018-05-18T13:25:44.082Z,26.09
2018-05-18T13:28:10.598Z,26.07
2018-05-18T13:30:37.087Z,26.04
2018-05-18T13:33:03.565Z,26.02
2018-05-18T13:35:37.270Z,25.77
2018-05-18T13:38:03.867Z,25.75
2018-05-18T13:40:30.347Z,25.84
2018-05-18T13:42:56.827Z,25.62
2018-05-18T13:45:23.482Z,25.80
2018-05-18T13:47:49.843Z,25.35
2018-05-18T13:50:16.657Z,25.38
2018-05-18T13:52:43.217Z,25.10
2018-05-18T13:55:15.377Z,25.25
2018-05-18T13:57:42.707Z,25.28
2018-05-18T14:00:09.397Z,25.35
2018-05-18T14:02:36.178Z,25.41
2018-05-18T14:05:02.861Z,25.29
2018-05-18T14:07:30.448Z,25.29
2018-05-18T14:09:57.185Z,25.03
2018-05-18T14:12:24.352Z,24.84
2018-05-18T14:14:51.608Z,24.72
2018-05-18T14:17:18.360Z,24.96
2018-05-18T14:19:44.951Z,24.84
2018-05-18T14:22:11.809Z,24.60
2018-05-18T14:24:38.537Z,24.45
2018-05-18T14:27:05.421Z,24.44
2018-05-18T14:29:31.879Z,24.63
2018-05-18T14:31:58.352Z,24.38
2018-05-18T14:34:25.981Z,24.33
2018-05-18T14:36:52.584Z,23.96
2018-05-18T14:39:19.049Z,24.11
2018-05-18T14:41:45.561Z,24.02
2018-05-18T14:44:11.996Z,24.08
2018-05-18T14:46:38.825Z,24.15
2018-05-18T14:49:05.362Z,24.03
2018-05-18T14:51:31.856Z,23.92
2018-05-18T14:53:58.384Z,23.56
2018-05-18T14:56:30.131Z,23.63
2018-05-18T14:58:56.625Z,23.20
2018-05-18T15:01:23.039Z,23.07
2018-05-18T15:03:49.695Z,22.88
2018-05-18T15:06:17.276Z,22.90
2018-05-18T15:08:44.974Z,22.94
2018-05-18T15:11:11.673Z,22.89
2018-05-18T15:13:38.140Z,22.74
2018-05-18T15:16:04.773Z,22.81
2018-05-18T15:18:31.434Z,22.73
2018-05-18T15:20:58.003Z,22.57
2018-05-18T15:23:25.361Z,22.39
2018-05-18T15:25:53.228Z,22.37
2018-05-18T15:28:20.050Z,22.26
2018-05-18T15:30:47.969Z,22.09
2018-05-18T15:33:15.097Z,21.86
2018-05-18T15:35:41.599Z,21.63
2018-05-18T15:38:08.179Z,21.58
2018-05-18T15:40:34.710Z,21.59
2018-05-18T15:43:01.793Z,21.47
2018-05-18T15:45:28.992Z,21.43
2018-05-18T15:47:55.602Z,21.38
2018-05-18T15:50:22.017Z,21.30
2018-05-18T15:52:48.439Z,21.16
2018-05-18T15:55:14.866Z,20.99
2018-05-18T15:57:41.339Z,20.95
2018-05-18T16:00:07.872Z,20.90
2018-05-18T16:02:34.646Z,20.81
2018-05-18T16:05:02.591Z,20.70
2018-05-18T16:07:32.676Z,20.77
2018-05-18T16:09:59.400Z,20.63
2018-05-18T16:12:26.597Z,20.63
2018-05-18T16:14:53.413Z,20.46
2018-05-18T16:17:20.042Z,20.46
2018-05-18T16:19:46.757Z,20.49
2018-05-18T16:22:13.737Z,20.35
2018-05-18T16:24:40.310Z,20.28
2018-05-18T16:27:08.378Z,20.24
2018-05-18T16:29:35.779Z,20.24
2018-05-18T16:32:04.381Z,20.15
2018-05-18T16:34:31.074Z,20.11
2018-05-18T16:36:57.961Z,20.07
2018-05-18T16:39:24.436Z,19.96
2018-05-18T16:41:51.632Z,19.93
2018-05-18T16:44:18.183Z,19.89
2018-05-18T16:46:45.955Z,19.73
2018-05-18T16:49:12.700Z,19.75
2018-05-18T16:51:39.757Z,19.68
2018-05-18T16:54:06.375Z,19.70
2018-05-18T16:56:33.236Z,19.72
2018-05-18T16:58:59.809Z,19.63
2018-05-18T17:01:26.991Z,19.54
2018-05-18T17:03:55.327Z,19.45
2018-05-18T17:06:23.363Z,19.29
2018-05-18T17:08:50.704Z,19.17
2018-05-18T17:11:18.040Z,19.00
2018-05-18T17:13:45.395Z,18.91
2018-05-18T17:16:13.558Z,18.74
2018-05-18T17:18:42.494Z,18.69
2018-05-18T17:21:12.485Z,18.62
2018-05-18T17:23:44.227Z,18.61
2018-05-18T17:26:15.049Z,18.51
2018-05-18T17:28:45.908Z,18.40
2018-05-18T17:31:16.654Z,18.25
2018-05-18T17:33:47.275Z,18.29
2018-05-18T17:36:18.705Z,18.36
2018-05-18T17:38:47.956Z,18.45
2018-05-18T17:41:17.669Z,18.39
2018-05-18T17:43:47.369Z,18.18
2018-05-18T17:46:15.383Z,18.20
2018-05-18T17:48:43.546Z,18.23
2018-05-18T17:51:11.887Z,18.26
2018-05-18T17:53:40.715Z,18.19
2018-05-18T17:56:09.438Z,18.23
2018-05-18T17:58:37.260Z,18.25
2018-05-18T18:01:05.586Z,18.17
2018-05-18T18:03:34.525Z,18.06
2018-05-18T18:06:02.697Z,18.03
2018-05-18T18:08:30.443Z,18.00
2018-05-18T18:10:58.643Z,17.98
2018-05-18T18:13:26.230Z,17.97
2018-05-18T18:15:54.429Z,17.98
2018-05-18T18:18:22.365Z,17.97
2018-05-18T18:20:50.609Z,17.93
2018-05-18T18:23:17.832Z,18.00
2018-05-18T18:25:45.812Z,17.94
2018-05-18T18:28:14.054Z,17.82
2018-05-18T18:30:44.103Z,17.82
2018-05-18T18:33:12.490Z,17.83
2018-05-18T18:35:40.849Z,17.79
2018-05-18T18:38:08.816Z,17.66
2018-05-18T18:40:36.473Z,17.66
2018-05-18T18:43:03.624Z,17.59
2018-05-18T18:45:31.331Z,17.64
2018-05-18T18:47:59.941Z,17.64
2018-05-18T18:50:27.636Z,17.63
2018-05-18T18:52:55.122Z,17.55
2018-05-18T18:55:22.991Z,17.47
2018-05-18T18:57:50.319Z,17.42
2018-05-18T19:00:18.022Z,17.45
2018-05-18T19:02:45.366Z,17.44
2018-05-18T19:05:11.937Z,17.43
2018-05-18T19:07:39.613Z,17.31
2018-05-18T19:10:06.894Z,17.26
2018-05-18T19:12:33.663Z,17.21
2018-05-18T19:15:01.485Z,17.31
2018-05-18T19:17:28.909Z,17.26
2018-05-18T19:19:55.505Z,17.22
2018-05-18T19:22:22.555Z,17.20
2018-05-18T19:24:49.446Z,17.14
2018-05-18T19:27:16.173Z,17.06
2018-05-18T19:29:42.927Z,17.07
2018-05-18T19:32:10.325Z,17.01
2018-05-18T19:34:38.098Z,17.00
2018-05-18T19:37:05.114Z,16.91
2018-05-18T19:39:32.710Z,16.80
2018-05-18T19:42:00.080Z,16.76
2018-05-18T19:44:26.806Z,16.66
2018-05-18T19:46:53.840Z,16.62
2018-05-18T19:49:20.559Z,16.60
2018-05-18T19:51:47.392Z,16.57
2018-05-18T19:54:14.140Z,16.51
2018-05-18T19:56:40.731Z,16.47
2018-05-18T19:59:07.357Z,16.43
2018-05-18T20:01:34.061Z,16.44
2018-05-18T20:04:01.045Z,16.44
2018-05-18T20:06:29.378Z,16.37
2018-05-18T20:08:56.554Z,16.26
2018-05-18T20:11:23.463Z,16.22
2018-05-18T20:13:50.030Z,16.21
2018-05-18T20:16:16.763Z,16.19
2018-05-18T20:18:43.692Z,16.14
2018-05-18T20:21:10.483Z,16.12
2018-05-18T20:23:37.327Z,16.16
2018-05-18T20:26:04.436Z,16.12
2018-05-18T20:28:31.178Z,16.13
2018-05-18T20:30:57.726Z,16.07
2018-05-18T20:33:24.233Z,16.11
2018-05-18T20:35:50.813Z,16.10
2018-05-18T20:38:17.463Z,16.06
2018-05-18T20:40:43.877Z,16.10
2018-05-18T20:43:10.323Z,16.19
2018-05-18T20:45:36.818Z,16.10
2018-05-18T20:48:03.267Z,16.06
2018-05-18T20:50:30.603Z,16.05
2018-05-18T20:52:57.262Z,16.03
2018-05-18T20:55:23.698Z,16.03
2018-05-18T20:57:50.270Z,16.02
2018-05-18T21:00:16.813Z,16.06
2018-05-18T21:02:43.211Z,16.19
2018-05-18T21:05:09.899Z,16.08
2018-05-18T21:07:36.313Z,16.12
2018-05-18T21:10:02.892Z,16.01
2018-05-18T21:12:29.477Z,15.89
2018-05-18T21:14:56.014Z,15.83
2018-05-18T21:17:22.457Z,15.85
2018-05-18T21:19:48.956Z,15.86
2018-05-18T21:22:16.372Z,15.83
2018-05-18T21:24:42.977Z,15.81
2018-05-18T21:27:09.375Z,15.77
2018-05-18T21:29:35.821Z,15.72
2018-05-18T21:32:02.356Z,15.75
2018-05-18T21:34:29.071Z,15.73
2018-05-18T21:36:55.838Z,15.82
2018-05-18T21:39:22.653Z,15.87
2018-05-18T21:41:49.328Z,15.78
2018-05-18T21:44:16.345Z,15.77
2018-05-18T21:46:43.722Z,15.78
2018-05-18T21:49:10.713Z,15.81
2018-05-18T21:51:37.322Z,15.82
2018-05-18T21:54:03.753Z,15.88
2018-05-18T21:56:30.212Z,15.89
2018-05-18T21:58:56.926Z,15.80
2018-05-18T22:01:23.546Z,15.73
2018-05-18T22:03:49.925Z,15.81
2018-05-18T22:06:17.444Z,15.75
2018-05-18T22:08:43.957Z,15.78
2018-05-18T22:11:10.480Z,15.80
2018-05-18T22:13:36.994Z,15.83
2018-05-18T22:16:03.599Z,15.84
2018-05-18T22:18:30.154Z,15.75
2018-05-18T22:20:56.605Z,15.55
2018-05-18T22:23:22.962Z,15.30
2018-05-18T22:25:49.323Z,15.11
2018-05-18T22:28:15.655Z,15.03
2018-05-18T22:30:42.011Z,14.92
2018-05-18T22:33:08.340Z,14.80
2018-05-18T22:35:35.110Z,14.76
2018-05-18T22:38:01.622Z,14.60
2018-05-18T22:40:29.008Z,14.58
2018-05-18T22:42:55.479Z,14.51
2018-05-18T22:45:21.831Z,14.51
2018-05-18T22:47:48.432Z,14.50
2018-05-18T22:50:15.000Z,14.56
2018-05-18T22:52:41.595Z,14.51
2018-05-18T22:55:07.982Z,14.49
2018-05-18T22:57:34.636Z,14.46
2018-05-18T23:00:01.107Z,14.53
2018-05-18T23:02:27.578Z,14.51
2018-05-18T23:04:53.993Z,14.38
2018-05-18T23:07:20.572Z,14.18
2018-05-18T23:09:47.017Z,14.19
2018-05-18T23:12:13.482Z,14.04
2018-05-18T23:14:39.818Z,13.97
2018-05-18T23:17:06.225Z,13.98
2018-05-18T23:19:32.676Z,13.89
2018-05-18T23:21:59.067Z,13.92
2018-05-18T23:24:25.425Z,13.95
2018-05-18T23:26:52.608Z,13.94
2018-05-18T23:29:18.992Z,13.96
2018-05-18T23:31:45.397Z,13.88
2018-05-18T23:34:11.823Z,13.93
2018-05-18T23:36:38.207Z,13.89
2018-05-18T23:39:04.608Z,13.87
2018-05-18T23:41:31.079Z,13.83
2018-05-18T23:43:57.524Z,13.80
2018-05-18T23:46:24.106Z,13.76
2018-05-18T23:48:50.567Z,13.78
2018-05-18T23:51:16.900Z,13.68
2018-05-18T23:53:43.233Z,13.69
2018-05-18T23:56:11.768Z,13.69
2018-05-18T23:58:39.218Z,13.66
